sensor_id;sensor_type;location;lat;lon;timestamp;temperature;humidity
36280;DHT22;22317;47.936;12.742;2023-09-19T00:00:17;14.80;61.80
36280;DHT22;22317;47.936;12.742;2023-09-19T00:02:46;14.80;61.60
36280;DHT22;22317;47.936;12.742;2023-09-19T00:05:13;14.80;61.60
36280;DHT22;22317;47.936;12.742;2023-09-19T00:07:39;14.80;61.70
36280;DHT22;22317;47.936;12.742;2023-09-19T00:10:07;14.80;61.70
36280;DHT22;22317;47.936;12.742;2023-09-19T00:12:35;14.80;61.70
36280;DHT22;22317;47.936;12.742;2023-09-19T00:15:00;14.80;61.70
36280;DHT22;22317;47.936;12.742;2023-09-19T00:17:31;14.80;61.70
36280;DHT22;22317;47.936;12.742;2023-09-19T00:19:57;14.80;61.80
36280;DHT22;22317;47.936;12.742;2023-09-19T00:22:23;14.80;61.80
36280;DHT22;22317;47.936;12.742;2023-09-19T00:24:51;14.80;61.90
36280;DHT22;22317;47.936;12.742;2023-09-19T00:27:17;14.80;61.90
36280;DHT22;22317;47.936;12.742;2023-09-19T00:29:44;14.80;61.90
36280;DHT22;22317;47.936;12.742;2023-09-19T00:32:09;14.80;61.80
36280;DHT22;22317;47.936;12.742;2023-09-19T00:34:35;14.80;61.90
36280;DHT22;22317;47.936;12.742;2023-09-19T00:37:01;14.70;61.70
36280;DHT22;22317;47.936;12.742;2023-09-19T00:39:26;14.70;61.70
36280;DHT22;22317;47.936;12.742;2023-09-19T00:41:53;14.70;61.80
36280;DHT22;22317;47.936;12.742;2023-09-19T00:44:20;14.70;61.80
36280;DHT22;22317;47.936;12.742;2023-09-19T00:46:50;14.60;61.80
36280;DHT22;22317;47.936;12.742;2023-09-19T00:49:16;14.50;61.80
36280;DHT22;22317;47.936;12.742;2023-09-19T00:51:42;14.50;61.80
36280;DHT22;22317;47.936;12.742;2023-09-19T00:54:13;14.50;62.00
36280;DHT22;22317;47.936;12.742;2023-09-19T00:56:44;14.50;62.10
36280;DHT22;22317;47.936;12.742;2023-09-19T00:59:10;14.40;62.10
36280;DHT22;22317;47.936;12.742;2023-09-19T01:01:37;14.40;62.10
36280;DHT22;22317;47.936;12.742;2023-09-19T01:04:06;14.40;62.20
36280;DHT22;22317;47.936;12.742;2023-09-19T01:06:32;14.40;62.20
36280;DHT22;22317;47.936;12.742;2023-09-19T01:08:57;14.40;62.20
36280;DHT22;22317;47.936;12.742;2023-09-19T01:11:35;14.30;62.20
36280;DHT22;22317;47.936;12.742;2023-09-19T01:14:42;14.30;62.30
36280;DHT22;22317;47.936;12.742;2023-09-19T01:17:32;14.30;62.30
36280;DHT22;22317;47.936;12.742;2023-09-19T01:28:20;14.10;62.40
36280;DHT22;22317;47.936;12.742;2023-09-19T01:30:48;14.10;62.60
36280;DHT22;22317;47.936;12.742;2023-09-19T01:33:19;14.00;63.20
36280;DHT22;22317;47.936;12.742;2023-09-19T01:35:45;14.00;62.50
36280;DHT22;22317;47.936;12.742;2023-09-19T01:38:11;14.00;62.50
36280;DHT22;22317;47.936;12.742;2023-09-19T01:40:44;13.10;62.10
36280;DHT22;22317;47.936;12.742;2023-09-19T01:43:29;14.00;62.70
36280;DHT22;22317;47.936;12.742;2023-09-19T01:46:25;14.00;62.80
36280;DHT22;22317;47.936;12.742;2023-09-19T01:52:10;14.00;62.60
36280;DHT22;22317;47.936;12.742;2023-09-19T01:54:48;14.00;62.70
36280;DHT22;22317;47.936;12.742;2023-09-19T01:57:26;13.90;62.60
36280;DHT22;22317;47.936;12.742;2023-09-19T02:00:02;13.90;62.70
36280;DHT22;22317;47.936;12.742;2023-09-19T02:02:40;13.90;62.70
36280;DHT22;22317;47.936;12.742;2023-09-19T02:05:07;13.90;62.70
36280;DHT22;22317;47.936;12.742;2023-09-19T02:07:33;13.90;62.80
36280;DHT22;22317;47.936;12.742;2023-09-19T02:10:01;13.90;62.90
36280;DHT22;22317;47.936;12.742;2023-09-19T02:12:28;13.90;62.90
36280;DHT22;22317;47.936;12.742;2023-09-19T02:14:56;13.90;63.00
36280;DHT22;22317;47.936;12.742;2023-09-19T02:17:23;13.90;63.00
36280;DHT22;22317;47.936;12.742;2023-09-19T02:19:55;13.90;62.90
36280;DHT22;22317;47.936;12.742;2023-09-19T02:22:21;13.90;63.00
36280;DHT22;22317;47.936;12.742;2023-09-19T02:24:48;13.90;63.00
36280;DHT22;22317;47.936;12.742;2023-09-19T02:27:14;13.90;63.00
36280;DHT22;22317;47.936;12.742;2023-09-19T02:29:42;13.90;63.00
36280;DHT22;22317;47.936;12.742;2023-09-19T02:32:08;13.90;63.00
36280;DHT22;22317;47.936;12.742;2023-09-19T02:34:37;13.80;63.00
36280;DHT22;22317;47.936;12.742;2023-09-19T02:37:05;13.80;63.10
36280;DHT22;22317;47.936;12.742;2023-09-19T02:39:34;13.80;63.00
36280;DHT22;22317;47.936;12.742;2023-09-19T02:42:01;13.70;63.10
36280;DHT22;22317;47.936;12.742;2023-09-19T02:44:27;13.70;63.20
36280;DHT22;22317;47.936;12.742;2023-09-19T02:46:53;13.70;63.20
36280;DHT22;22317;47.936;12.742;2023-09-19T02:49:19;13.70;63.20
36280;DHT22;22317;47.936;12.742;2023-09-19T02:51:44;13.70;64.10
36280;DHT22;22317;47.936;12.742;2023-09-19T02:54:11;13.60;63.40
36280;DHT22;22317;47.936;12.742;2023-09-19T02:56:37;13.60;63.40
36280;DHT22;22317;47.936;12.742;2023-09-19T02:59:03;13.60;63.60
36280;DHT22;22317;47.936;12.742;2023-09-19T03:01:29;13.60;63.70
36280;DHT22;22317;47.936;12.742;2023-09-19T03:03:55;13.60;63.70
36280;DHT22;22317;47.936;12.742;2023-09-19T03:06:21;13.60;65.80
36280;DHT22;22317;47.936;12.742;2023-09-19T03:08:49;13.60;68.00
36280;DHT22;22317;47.936;12.742;2023-09-19T03:11:18;13.60;63.80
36280;DHT22;22317;47.936;12.742;2023-09-19T03:13:52;13.60;63.80
36280;DHT22;22317;47.936;12.742;2023-09-19T03:16:19;13.60;64.10
36280;DHT22;22317;47.936;12.742;2023-09-19T03:18:48;13.60;64.90
36280;DHT22;22317;47.936;12.742;2023-09-19T03:21:16;13.60;63.80
36280;DHT22;22317;47.936;12.742;2023-09-19T03:23:43;13.60;63.70
36280;DHT22;22317;47.936;12.742;2023-09-19T03:26:14;13.50;63.60
36280;DHT22;22317;47.936;12.742;2023-09-19T03:28:42;13.60;63.70
36280;DHT22;22317;47.936;12.742;2023-09-19T03:31:10;13.60;63.60
36280;DHT22;22317;47.936;12.742;2023-09-19T03:33:36;13.60;63.60
36280;DHT22;22317;47.936;12.742;2023-09-19T03:36:03;13.60;63.60
36280;DHT22;22317;47.936;12.742;2023-09-19T03:38:33;13.70;63.60
36280;DHT22;22317;47.936;12.742;2023-09-19T03:41:00;13.70;63.50
36280;DHT22;22317;47.936;12.742;2023-09-19T03:43:27;13.70;63.50
36280;DHT22;22317;47.936;12.742;2023-09-19T03:45:53;13.70;63.40
36280;DHT22;22317;47.936;12.742;2023-09-19T03:48:21;13.70;63.50
36280;DHT22;22317;47.936;12.742;2023-09-19T03:50:47;13.70;63.40
36280;DHT22;22317;47.936;12.742;2023-09-19T03:53:14;13.80;63.40
36280;DHT22;22317;47.936;12.742;2023-09-19T03:55:45;13.90;63.60
36280;DHT22;22317;47.936;12.742;2023-09-19T03:58:11;13.90;63.50
36280;DHT22;22317;47.936;12.742;2023-09-19T04:00:38;13.90;63.50
36280;DHT22;22317;47.936;12.742;2023-09-19T04:03:04;14.00;63.40
36280;DHT22;22317;47.936;12.742;2023-09-19T04:05:32;14.00;63.30
36280;DHT22;22317;47.936;12.742;2023-09-19T04:07:59;14.10;63.30
36280;DHT22;22317;47.936;12.742;2023-09-19T04:10:25;14.10;63.20
36280;DHT22;22317;47.936;12.742;2023-09-19T04:12:54;14.20;63.20
36280;DHT22;22317;47.936;12.742;2023-09-19T04:15:22;14.20;63.10
36280;DHT22;22317;47.936;12.742;2023-09-19T04:17:49;14.20;63.00
36280;DHT22;22317;47.936;12.742;2023-09-19T04:20:19;14.30;62.90
36280;DHT22;22317;47.936;12.742;2023-09-19T04:22:45;14.30;62.90
36280;DHT22;22317;47.936;12.742;2023-09-19T04:25:12;14.30;63.00
36280;DHT22;22317;47.936;12.742;2023-09-19T04:27:40;14.30;63.10
36280;DHT22;22317;47.936;12.742;2023-09-19T04:30:07;14.30;63.20
36280;DHT22;22317;47.936;12.742;2023-09-19T04:32:40;14.30;62.50
36280;DHT22;22317;47.936;12.742;2023-09-19T04:35:10;14.30;62.40
36280;DHT22;22317;47.936;12.742;2023-09-19T04:37:40;14.40;62.40
36280;DHT22;22317;47.936;12.742;2023-09-19T04:40:10;14.40;62.40
36280;DHT22;22317;47.936;12.742;2023-09-19T04:42:45;14.40;62.30
36280;DHT22;22317;47.936;12.742;2023-09-19T04:45:11;14.40;62.20
36280;DHT22;22317;47.936;12.742;2023-09-19T04:47:38;14.40;62.00
36280;DHT22;22317;47.936;12.742;2023-09-19T04:50:08;14.30;61.90
36280;DHT22;22317;47.936;12.742;2023-09-19T04:52:42;14.30;61.90
36280;DHT22;22317;47.936;12.742;2023-09-19T04:55:13;14.40;61.90
36280;DHT22;22317;47.936;12.742;2023-09-19T05:00:13;14.30;61.60
36280;DHT22;22317;47.936;12.742;2023-09-19T05:02:41;14.30;61.50
36280;DHT22;22317;47.936;12.742;2023-09-19T05:05:08;14.40;61.50
36280;DHT22;22317;47.936;12.742;2023-09-19T05:07:35;14.40;61.40
36280;DHT22;22317;47.936;12.742;2023-09-19T05:10:01;14.40;61.30
36280;DHT22;22317;47.936;12.742;2023-09-19T05:12:34;14.50;61.30
36280;DHT22;22317;47.936;12.742;2023-09-19T05:15:02;14.50;61.00
36280;DHT22;22317;47.936;12.742;2023-09-19T05:17:29;14.50;60.80
36280;DHT22;22317;47.936;12.742;2023-09-19T05:19:55;14.60;60.80
36280;DHT22;22317;47.936;12.742;2023-09-19T05:22:21;14.60;60.60
36280;DHT22;22317;47.936;12.742;2023-09-19T05:24:47;14.60;60.50
36280;DHT22;22317;47.936;12.742;2023-09-19T05:27:14;14.70;60.50
36280;DHT22;22317;47.936;12.742;2023-09-19T05:29:46;14.70;60.40
36280;DHT22;22317;47.936;12.742;2023-09-19T05:32:12;14.60;60.20
36280;DHT22;22317;47.936;12.742;2023-09-19T05:34:38;14.70;60.20
36280;DHT22;22317;47.936;12.742;2023-09-19T05:37:04;14.70;60.10
36280;DHT22;22317;47.936;12.742;2023-09-19T05:39:34;14.80;60.10
36280;DHT22;22317;47.936;12.742;2023-09-19T05:41:59;14.80;59.80
36280;DHT22;22317;47.936;12.742;2023-09-19T05:44:28;14.80;59.70
36280;DHT22;22317;47.936;12.742;2023-09-19T05:46:54;14.80;59.80
36280;DHT22;22317;47.936;12.742;2023-09-19T05:49:22;14.80;59.60
36280;DHT22;22317;47.936;12.742;2023-09-19T05:51:50;14.80;59.70
36280;DHT22;22317;47.936;12.742;2023-09-19T05:54:19;14.80;59.60
36280;DHT22;22317;47.936;12.742;2023-09-19T05:56:45;14.90;59.70
36280;DHT22;22317;47.936;12.742;2023-09-19T05:59:13;14.90;59.50
36280;DHT22;22317;47.936;12.742;2023-09-19T06:01:44;14.90;59.50
36280;DHT22;22317;47.936;12.742;2023-09-19T06:04:11;15.00;59.40
36280;DHT22;22317;47.936;12.742;2023-09-19T06:06:37;15.00;59.40
36280;DHT22;22317;47.936;12.742;2023-09-19T06:09:08;15.00;59.40
36280;DHT22;22317;47.936;12.742;2023-09-19T06:11:37;15.10;59.30
36280;DHT22;22317;47.936;12.742;2023-09-19T06:14:03;15.10;59.10
36280;DHT22;22317;47.936;12.742;2023-09-19T06:16:32;15.10;59.00
36280;DHT22;22317;47.936;12.742;2023-09-19T06:18:58;15.10;59.00
36280;DHT22;22317;47.936;12.742;2023-09-19T06:21:26;15.20;59.00
36280;DHT22;22317;47.936;12.742;2023-09-19T06:23:53;15.20;58.90
36280;DHT22;22317;47.936;12.742;2023-09-19T06:26:18;15.30;58.80
36280;DHT22;22317;47.936;12.742;2023-09-19T06:28:44;15.30;58.60
36280;DHT22;22317;47.936;12.742;2023-09-19T06:31:10;16.70;59.20
36280;DHT22;22317;47.936;12.742;2023-09-19T06:33:37;15.40;58.40
36280;DHT22;22317;47.936;12.742;2023-09-19T06:36:06;15.40;58.10
36280;DHT22;22317;47.936;12.742;2023-09-19T06:38:33;15.40;57.90
36280;DHT22;22317;47.936;12.742;2023-09-19T06:41:02;15.40;57.80
36280;DHT22;22317;47.936;12.742;2023-09-19T06:43:31;15.40;57.80
36280;DHT22;22317;47.936;12.742;2023-09-19T06:45:57;15.40;57.80
36280;DHT22;22317;47.936;12.742;2023-09-19T06:48:23;15.50;57.80
36280;DHT22;22317;47.936;12.742;2023-09-19T06:50:58;15.50;57.70
36280;DHT22;22317;47.936;12.742;2023-09-19T06:53:26;15.70;57.60
36280;DHT22;22317;47.936;12.742;2023-09-19T06:55:52;15.70;57.40
36280;DHT22;22317;47.936;12.742;2023-09-19T06:58:18;15.90;57.50
36280;DHT22;22317;47.936;12.742;2023-09-19T07:00:46;16.00;57.80
36280;DHT22;22317;47.936;12.742;2023-09-19T07:03:13;16.20;57.00
36280;DHT22;22317;47.936;12.742;2023-09-19T07:05:41;16.40;56.70
36280;DHT22;22317;47.936;12.742;2023-09-19T07:08:09;16.40;56.40
36280;DHT22;22317;47.936;12.742;2023-09-19T07:10:38;16.50;56.20
36280;DHT22;22317;47.936;12.742;2023-09-19T07:13:07;16.60;55.90
36280;DHT22;22317;47.936;12.742;2023-09-19T07:15:37;16.60;55.50
36280;DHT22;22317;47.936;12.742;2023-09-19T07:18:22;16.60;55.50
36280;DHT22;22317;47.936;12.742;2023-09-19T07:20:48;16.70;55.40
36280;DHT22;22317;47.936;12.742;2023-09-19T07:23:21;16.80;55.00
36280;DHT22;22317;47.936;12.742;2023-09-19T07:25:48;16.80;54.70
36280;DHT22;22317;47.936;12.742;2023-09-19T07:28:16;16.80;54.70
36280;DHT22;22317;47.936;12.742;2023-09-19T07:30:42;16.80;54.60
36280;DHT22;22317;47.936;12.742;2023-09-19T07:33:08;16.80;54.40
36280;DHT22;22317;47.936;12.742;2023-09-19T07:35:37;16.80;54.30
36280;DHT22;22317;47.936;12.742;2023-09-19T07:38:05;16.80;54.20
36280;DHT22;22317;47.936;12.742;2023-09-19T07:40:31;16.90;54.10
36280;DHT22;22317;47.936;12.742;2023-09-19T07:42:57;16.90;53.90
36280;DHT22;22317;47.936;12.742;2023-09-19T07:45:28;16.90;53.80
36280;DHT22;22317;47.936;12.742;2023-09-19T07:47:55;17.00;53.80
36280;DHT22;22317;47.936;12.742;2023-09-19T07:50:21;17.00;53.70
36280;DHT22;22317;47.936;12.742;2023-09-19T07:52:48;17.00;53.50
36280;DHT22;22317;47.936;12.742;2023-09-19T07:55:16;17.00;53.50
36280;DHT22;22317;47.936;12.742;2023-09-19T07:57:46;17.00;53.50
36280;DHT22;22317;47.936;12.742;2023-09-19T08:00:15;17.10;53.50
36280;DHT22;22317;47.936;12.742;2023-09-19T08:02:41;17.20;53.90
36280;DHT22;22317;47.936;12.742;2023-09-19T08:05:11;17.30;54.00
36280;DHT22;22317;47.936;12.742;2023-09-19T08:07:38;17.50;53.80
36280;DHT22;22317;47.936;12.742;2023-09-19T08:10:05;17.60;53.50
36280;DHT22;22317;47.936;12.742;2023-09-19T08:12:36;17.70;53.10
36280;DHT22;22317;47.936;12.742;2023-09-19T08:15:05;17.80;52.60
36280;DHT22;22317;47.936;12.742;2023-09-19T08:17:34;17.80;52.50
36280;DHT22;22317;47.936;12.742;2023-09-19T08:20:00;17.90;52.40
36280;DHT22;22317;47.936;12.742;2023-09-19T08:22:28;18.00;52.40
36280;DHT22;22317;47.936;12.742;2023-09-19T08:24:54;18.10;52.20
36280;DHT22;22317;47.936;12.742;2023-09-19T08:27:21;18.10;52.10
36280;DHT22;22317;47.936;12.742;2023-09-19T08:29:47;18.20;52.20
36280;DHT22;22317;47.936;12.742;2023-09-19T08:32:13;18.40;51.90
36280;DHT22;22317;47.936;12.742;2023-09-19T08:34:40;18.50;51.60
36280;DHT22;22317;47.936;12.742;2023-09-19T08:37:05;17.60;50.80
36280;DHT22;22317;47.936;12.742;2023-09-19T08:39:31;18.80;51.20
36280;DHT22;22317;47.936;12.742;2023-09-19T08:42:00;18.90;51.10
36280;DHT22;22317;47.936;12.742;2023-09-19T08:44:26;19.10;51.10
36280;DHT22;22317;47.936;12.742;2023-09-19T08:47:04;19.30;50.60
36280;DHT22;22317;47.936;12.742;2023-09-19T08:49:39;19.30;49.80
36280;DHT22;22317;47.936;12.742;2023-09-19T08:52:16;19.40;49.70
36280;DHT22;22317;47.936;12.742;2023-09-19T08:54:47;18.70;48.80
36280;DHT22;22317;47.936;12.742;2023-09-19T08:57:15;19.50;49.20
36280;DHT22;22317;47.936;12.742;2023-09-19T08:59:50;19.50;49.40
36280;DHT22;22317;47.936;12.742;2023-09-19T09:02:17;19.70;50.20
36280;DHT22;22317;47.936;12.742;2023-09-19T09:04:46;19.70;48.90
36280;DHT22;22317;47.936;12.742;2023-09-19T09:07:14;19.80;48.60
36280;DHT22;22317;47.936;12.742;2023-09-19T09:09:41;19.70;48.50
36280;DHT22;22317;47.936;12.742;2023-09-19T09:12:12;19.80;48.50
36280;DHT22;22317;47.936;12.742;2023-09-19T09:14:46;19.80;48.40
36280;DHT22;22317;47.936;12.742;2023-09-19T09:17:16;19.90;48.30
36280;DHT22;22317;47.936;12.742;2023-09-19T09:19:48;20.00;48.30
36280;DHT22;22317;47.936;12.742;2023-09-19T09:22:14;20.10;48.10
36280;DHT22;22317;47.936;12.742;2023-09-19T09:24:56;20.20;47.50
36280;DHT22;22317;47.936;12.742;2023-09-19T09:27:27;20.20;47.10
36280;DHT22;22317;47.936;12.742;2023-09-19T09:29:53;20.20;47.30
36280;DHT22;22317;47.936;12.742;2023-09-19T09:32:29;20.30;47.70
36280;DHT22;22317;47.936;12.742;2023-09-19T09:35:00;20.40;47.50
36280;DHT22;22317;47.936;12.742;2023-09-19T09:37:27;20.40;47.20
36280;DHT22;22317;47.936;12.742;2023-09-19T09:39:55;20.50;47.50
36280;DHT22;22317;47.936;12.742;2023-09-19T09:42:32;20.70;47.50
36280;DHT22;22317;47.936;12.742;2023-09-19T09:45:16;20.40;46.70
36280;DHT22;22317;47.936;12.742;2023-09-19T09:47:49;21.10;46.70
36280;DHT22;22317;47.936;12.742;2023-09-19T09:50:31;21.20;46.20
36280;DHT22;22317;47.936;12.742;2023-09-19T09:53:25;21.30;45.60
36280;DHT22;22317;47.936;12.742;2023-09-19T09:56:07;21.20;45.20
36280;DHT22;22317;47.936;12.742;2023-09-19T09:58:50;21.20;45.20
36280;DHT22;22317;47.936;12.742;2023-09-19T10:01:21;21.20;45.30
36280;DHT22;22317;47.936;12.742;2023-09-19T10:03:57;21.20;45.40
36280;DHT22;22317;47.936;12.742;2023-09-19T10:06:23;21.30;45.20
36280;DHT22;22317;47.936;12.742;2023-09-19T10:09:08;21.30;45.00
36280;DHT22;22317;47.936;12.742;2023-09-19T10:11:41;21.30;44.40
36280;DHT22;22317;47.936;12.742;2023-09-19T10:14:16;21.20;44.40
36280;DHT22;22317;47.936;12.742;2023-09-19T10:16:46;21.10;44.60
36280;DHT22;22317;47.936;12.742;2023-09-19T10:22:14;21.40;45.10
36280;DHT22;22317;47.936;12.742;2023-09-19T10:24:49;21.60;45.80
36280;DHT22;22317;47.936;12.742;2023-09-19T10:27:18;21.90;45.80
36280;DHT22;22317;47.936;12.742;2023-09-19T10:29:49;22.10;45.10
36280;DHT22;22317;47.936;12.742;2023-09-19T10:32:16;22.20;44.30
36280;DHT22;22317;47.936;12.742;2023-09-19T10:34:46;22.10;43.80
36280;DHT22;22317;47.936;12.742;2023-09-19T10:37:13;22.10;43.50
36280;DHT22;22317;47.936;12.742;2023-09-19T10:39:44;22.00;43.50
36280;DHT22;22317;47.936;12.742;2023-09-19T10:42:14;22.00;43.40
36280;DHT22;22317;47.936;12.742;2023-09-19T10:44:42;21.90;43.00
36280;DHT22;22317;47.936;12.742;2023-09-19T10:47:10;21.80;43.00
36280;DHT22;22317;47.936;12.742;2023-09-19T10:49:46;21.50;42.90
36280;DHT22;22317;47.936;12.742;2023-09-19T10:52:14;21.40;43.00
36280;DHT22;22317;47.936;12.742;2023-09-19T10:54:55;21.10;43.00
36280;DHT22;22317;47.936;12.742;2023-09-19T10:57:24;20.90;43.20
36280;DHT22;22317;47.936;12.742;2023-09-19T11:06:04;20.50;44.80
36280;DHT22;22317;47.936;12.742;2023-09-19T11:30:44;21.30;45.20
36280;DHT22;22317;47.936;12.742;2023-09-19T11:33:28;21.20;45.30
36280;DHT22;22317;47.936;12.742;2023-09-19T11:39:00;21.00;46.10
36280;DHT22;22317;47.936;12.742;2023-09-19T11:41:40;21.00;45.90
36280;DHT22;22317;47.936;12.742;2023-09-19T11:46:54;21.00;45.90
36280;DHT22;22317;47.936;12.742;2023-09-19T11:49:28;21.20;45.80
36280;DHT22;22317;47.936;12.742;2023-09-19T11:51:56;21.40;45.80
36280;DHT22;22317;47.936;12.742;2023-09-19T11:54:21;21.80;46.00
36280;DHT22;22317;47.936;12.742;2023-09-19T11:56:51;22.60;46.10
36280;DHT22;22317;47.936;12.742;2023-09-19T11:59:30;23.50;45.10
36280;DHT22;22317;47.936;12.742;2023-09-19T12:02:06;24.60;43.70
36280;DHT22;22317;47.936;12.742;2023-09-19T12:04:38;25.60;42.30
36280;DHT22;22317;47.936;12.742;2023-09-19T12:09:41;27.60;40.10
36280;DHT22;22317;47.936;12.742;2023-09-19T12:12:34;28.60;38.80
36280;DHT22;22317;47.936;12.742;2023-09-19T12:15:00;29.40;36.50
36280;DHT22;22317;47.936;12.742;2023-09-19T12:17:38;29.80;35.50
36280;DHT22;22317;47.936;12.742;2023-09-19T12:20:06;30.00;34.10
36280;DHT22;22317;47.936;12.742;2023-09-19T12:22:45;30.30;34.00
36280;DHT22;22317;47.936;12.742;2023-09-19T12:25:15;30.90;32.30
36280;DHT22;22317;47.936;12.742;2023-09-19T12:27:49;31.40;32.40
36280;DHT22;22317;47.936;12.742;2023-09-19T12:30:18;32.10;31.10
36280;DHT22;22317;47.936;12.742;2023-09-19T12:32:46;32.00;30.00
36280;DHT22;22317;47.936;12.742;2023-09-19T12:35:28;32.80;29.40
36280;DHT22;22317;47.936;12.742;2023-09-19T12:37:56;32.70;28.40
36280;DHT22;22317;47.936;12.742;2023-09-19T12:40:23;32.50;28.70
36280;DHT22;22317;47.936;12.742;2023-09-19T12:42:56;32.20;28.50
36280;DHT22;22317;47.936;12.742;2023-09-19T12:45:22;32.40;29.00
36280;DHT22;22317;47.936;12.742;2023-09-19T12:51:01;33.80;27.90
36280;DHT22;22317;47.936;12.742;2023-09-19T12:53:29;34.60;27.90
36280;DHT22;22317;47.936;12.742;2023-09-19T12:55:59;35.40;27.50
36280;DHT22;22317;47.936;12.742;2023-09-19T12:58:25;36.00;26.20
36280;DHT22;22317;47.936;12.742;2023-09-19T13:00:52;36.50;25.80
36280;DHT22;22317;47.936;12.742;2023-09-19T13:05:55;37.30;24.10
36280;DHT22;22317;47.936;12.742;2023-09-19T13:08:26;37.60;23.90
36280;DHT22;22317;47.936;12.742;2023-09-19T13:11:16;38.10;24.50
36280;DHT22;22317;47.936;12.742;2023-09-19T13:16:29;39.40;23.50
36280;DHT22;22317;47.936;12.742;2023-09-19T13:18:55;40.00;23.40
36280;DHT22;22317;47.936;12.742;2023-09-19T13:21:33;40.40;23.30
36280;DHT22;22317;47.936;12.742;2023-09-19T13:24:20;41.00;22.70
36280;DHT22;22317;47.936;12.742;2023-09-19T13:26:46;41.90;22.20
36280;DHT22;22317;47.936;12.742;2023-09-19T13:29:12;42.60;21.90
36280;DHT22;22317;47.936;12.742;2023-09-19T13:31:37;42.90;21.60
36280;DHT22;22317;47.936;12.742;2023-09-19T13:34:08;43.40;21.40
36280;DHT22;22317;47.936;12.742;2023-09-19T13:36:34;44.10;20.30
36280;DHT22;22317;47.936;12.742;2023-09-19T13:39:00;44.20;19.30
36280;DHT22;22317;47.936;12.742;2023-09-19T13:41:26;43.50;18.50
36280;DHT22;22317;47.936;12.742;2023-09-19T13:43:52;43.00;18.60
36280;DHT22;22317;47.936;12.742;2023-09-19T13:46:19;42.50;18.50
36280;DHT22;22317;47.936;12.742;2023-09-19T13:48:51;42.00;18.80
36280;DHT22;22317;47.936;12.742;2023-09-19T13:51:20;41.40;18.70
36280;DHT22;22317;47.936;12.742;2023-09-19T13:53:48;41.20;19.40
36280;DHT22;22317;47.936;12.742;2023-09-19T13:56:16;40.80;19.00
36280;DHT22;22317;47.936;12.742;2023-09-19T13:58:42;39.80;18.80
36280;DHT22;22317;47.936;12.742;2023-09-19T14:01:08;38.60;19.20
36280;DHT22;22317;47.936;12.742;2023-09-19T14:03:41;37.70;19.80
36280;DHT22;22317;47.936;12.742;2023-09-19T14:06:12;36.60;19.70
36280;DHT22;22317;47.936;12.742;2023-09-19T14:08:38;35.60;20.60
36280;DHT22;22317;47.936;12.742;2023-09-19T14:11:08;34.80;21.10
36280;DHT22;22317;47.936;12.742;2023-09-19T14:13:35;34.50;22.00
36280;DHT22;22317;47.936;12.742;2023-09-19T14:16:06;34.10;22.60
36280;DHT22;22317;47.936;12.742;2023-09-19T14:18:35;33.60;23.10
36280;DHT22;22317;47.936;12.742;2023-09-19T14:21:04;32.90;23.60
36280;DHT22;22317;47.936;12.742;2023-09-19T14:23:40;32.20;24.50
36280;DHT22;22317;47.936;12.742;2023-09-19T14:26:10;31.60;25.50
36280;DHT22;22317;47.936;12.742;2023-09-19T14:28:36;31.20;25.80
36280;DHT22;22317;47.936;12.742;2023-09-19T14:31:09;31.40;27.10
36280;DHT22;22317;47.936;12.742;2023-09-19T14:33:35;32.60;28.10
36280;DHT22;22317;47.936;12.742;2023-09-19T14:36:09;34.20;27.90
36280;DHT22;22317;47.936;12.742;2023-09-19T14:38:37;35.90;26.50
36280;DHT22;22317;47.936;12.742;2023-09-19T14:41:04;37.40;25.70
36280;DHT22;22317;47.936;12.742;2023-09-19T14:43:30;38.60;24.70
36280;DHT22;22317;47.936;12.742;2023-09-19T14:46:07;39.40;23.80
36280;DHT22;22317;47.936;12.742;2023-09-19T14:48:34;40.30;23.20
36280;DHT22;22317;47.936;12.742;2023-09-19T14:51:06;41.30;22.40
36280;DHT22;22317;47.936;12.742;2023-09-19T14:53:36;41.80;21.40
36280;DHT22;22317;47.936;12.742;2023-09-19T14:56:06;42.20;21.30
36280;DHT22;22317;47.936;12.742;2023-09-19T14:58:33;43.10;21.20
36280;DHT22;22317;47.936;12.742;2023-09-19T15:01:17;44.10;20.80
36280;DHT22;22317;47.936;12.742;2023-09-19T15:03:43;45.10;19.80
36280;DHT22;22317;47.936;12.742;2023-09-19T15:06:10;45.80;19.40
36280;DHT22;22317;47.936;12.742;2023-09-19T15:08:43;45.70;18.70
36280;DHT22;22317;47.936;12.742;2023-09-19T15:11:19;45.80;18.30
36280;DHT22;22317;47.936;12.742;2023-09-19T15:13:47;45.50;17.90
36280;DHT22;22317;47.936;12.742;2023-09-19T15:16:13;44.90;18.10
36280;DHT22;22317;47.936;12.742;2023-09-19T15:18:44;44.30;18.50
36280;DHT22;22317;47.936;12.742;2023-09-19T15:21:12;43.70;18.90
36280;DHT22;22317;47.936;12.742;2023-09-19T15:23:39;43.20;19.40
36280;DHT22;22317;47.936;12.742;2023-09-19T15:26:06;42.80;19.70
36280;DHT22;22317;47.936;12.742;2023-09-19T15:28:34;42.80;19.90
36280;DHT22;22317;47.936;12.742;2023-09-19T15:31:04;43.00;20.00
36280;DHT22;22317;47.936;12.742;2023-09-19T15:33:30;43.40;19.80
36280;DHT22;22317;47.936;12.742;2023-09-19T15:36:06;44.10;19.60
36280;DHT22;22317;47.936;12.742;2023-09-19T15:41:27;45.60;18.80
36280;DHT22;22317;47.936;12.742;2023-09-19T15:43:53;46.30;18.70
36280;DHT22;22317;47.936;12.742;2023-09-19T15:46:20;47.00;18.20
36280;DHT22;22317;47.936;12.742;2023-09-19T15:48:46;47.50;17.70
36280;DHT22;22317;47.936;12.742;2023-09-19T15:51:12;47.90;17.20
36280;DHT22;22317;47.936;12.742;2023-09-19T15:53:50;48.20;16.90
36280;DHT22;22317;47.936;12.742;2023-09-19T15:56:17;48.30;16.30
36280;DHT22;22317;47.936;12.742;2023-09-19T15:58:50;48.20;16.20
36280;DHT22;22317;47.936;12.742;2023-09-19T16:01:18;47.80;15.80
36280;DHT22;22317;47.936;12.742;2023-09-19T16:03:46;47.30;16.10
36280;DHT22;22317;47.936;12.742;2023-09-19T16:06:19;46.40;16.20
36280;DHT22;22317;47.936;12.742;2023-09-19T16:08:49;45.40;16.60
36280;DHT22;22317;47.936;12.742;2023-09-19T16:11:18;44.10;17.00
36280;DHT22;22317;47.936;12.742;2023-09-19T16:13:47;42.90;17.60
36280;DHT22;22317;47.936;12.742;2023-09-19T16:16:14;41.80;17.90
36280;DHT22;22317;47.936;12.742;2023-09-19T16:21:21;39.40;19.50
36280;DHT22;22317;47.936;12.742;2023-09-19T16:23:49;38.00;19.50
36280;DHT22;22317;47.936;12.742;2023-09-19T16:26:20;36.80;20.20
36280;DHT22;22317;47.936;12.742;2023-09-19T16:28:49;35.60;20.90
36280;DHT22;22317;47.936;12.742;2023-09-19T16:31:16;34.50;21.50
36280;DHT22;22317;47.936;12.742;2023-09-19T16:33:44;33.60;22.20
36280;DHT22;22317;47.936;12.742;2023-09-19T16:36:15;32.60;22.80